sensor_id;sensor_type;location;lat;lon;timestamp;temperature;humidity
73360;DHT22;63092;43.582;19.528;2022-12-18T00:01:57;5.80;99.90
73360;DHT22;63092;43.582;19.528;2022-12-18T00:04:25;5.90;99.90
73360;DHT22;63092;43.582;19.528;2022-12-18T00:06:52;5.90;99.90
73360;DHT22;63092;43.582;19.528;2022-12-18T00:09:18;5.90;99.90
73360;DHT22;63092;43.582;19.528;2022-12-18T00:11:44;5.90;99.90
73360;DHT22;63092;43.582;19.528;2022-12-18T00:14:11;5.90;99.90
73360;DHT22;63092;43.582;19.528;2022-12-18T00:16:37;5.80;99.90
73360;DHT22;63092;43.582;19.528;2022-12-18T00:19:04;5.80;99.90
73360;DHT22;63092;43.582;19.528;2022-12-18T00:21:33;5.80;99.90
73360;DHT22;63092;43.582;19.528;2022-12-18T00:23:59;5.80;99.90
73360;DHT22;63092;43.582;19.528;2022-12-18T00:26:28;5.70;99.90
73360;DHT22;63092;43.582;19.528;2022-12-18T00:28:54;5.70;99.90
73360;DHT22;63092;43.582;19.528;2022-12-18T00:31:23;5.80;99.90
73360;DHT22;63092;43.582;19.528;2022-12-18T00:33:50;5.70;99.90
73360;DHT22;63092;43.582;19.528;2022-12-18T00:36:21;5.80;99.90
73360;DHT22;63092;43.582;19.528;2022-12-18T00:38:47;5.80;99.90
73360;DHT22;63092;43.582;19.528;2022-12-18T00:41:15;5.90;99.90
73360;DHT22;63092;43.582;19.528;2022-12-18T00:44:01;5.90;99.90
73360;DHT22;63092;43.582;19.528;2022-12-18T00:46:27;5.90;99.90
73360;DHT22;63092;43.582;19.528;2022-12-18T00:48:53;5.90;99.90
73360;DHT22;63092;43.582;19.528;2022-12-18T00:51:18;5.90;99.90
73360;DHT22;63092;43.582;19.528;2022-12-18T00:53:44;5.80;99.90
73360;DHT22;63092;43.582;19.528;2022-12-18T00:56:10;5.90;99.90
73360;DHT22;63092;43.582;19.528;2022-12-18T00:58:36;5.80;99.90
73360;DHT22;63092;43.582;19.528;2022-12-18T01:01:04;5.80;99.90
73360;DHT22;63092;43.582;19.528;2022-12-18T01:03:29;5.80;99.90
73360;DHT22;63092;43.582;19.528;2022-12-18T01:05:56;5.80;99.90
73360;DHT22;63092;43.582;19.528;2022-12-18T01:08:22;5.80;99.90
73360;DHT22;63092;43.582;19.528;2022-12-18T01:10:48;5.80;99.90
73360;DHT22;63092;43.582;19.528;2022-12-18T01:13:14;5.70;99.90
73360;DHT22;63092;43.582;19.528;2022-12-18T01:15:40;5.60;99.90
73360;DHT22;63092;43.582;19.528;2022-12-18T01:18:06;5.60;99.90
73360;DHT22;63092;43.582;19.528;2022-12-18T01:20:32;5.70;99.90
73360;DHT22;63092;43.582;19.528;2022-12-18T01:22:58;5.80;99.90
73360;DHT22;63092;43.582;19.528;2022-12-18T01:25:24;5.80;99.90
73360;DHT22;63092;43.582;19.528;2022-12-18T01:27:50;5.80;99.90
73360;DHT22;63092;43.582;19.528;2022-12-18T01:30:16;5.80;99.90
73360;DHT22;63092;43.582;19.528;2022-12-18T01:32:42;5.90;99.90
73360;DHT22;63092;43.582;19.528;2022-12-18T01:35:08;5.80;99.90
73360;DHT22;63092;43.582;19.528;2022-12-18T01:37:33;5.80;99.90
73360;DHT22;63092;43.582;19.528;2022-12-18T01:39:59;5.80;99.90
73360;DHT22;63092;43.582;19.528;2022-12-18T01:42:25;5.80;99.90
73360;DHT22;63092;43.582;19.528;2022-12-18T01:47:52;5.80;99.90
73360;DHT22;63092;43.582;19.528;2022-12-18T01:52:58;5.70;99.90
73360;DHT22;63092;43.582;19.528;2022-12-18T01:55:28;5.70;99.90
73360;DHT22;63092;43.582;19.528;2022-12-18T01:57:55;5.70;99.90
73360;DHT22;63092;43.582;19.528;2022-12-18T02:00:22;5.70;99.70
73360;DHT22;63092;43.582;19.528;2022-12-18T02:02:49;5.80;99.70
73360;DHT22;63092;43.582;19.528;2022-12-18T02:06:03;5.90;98.20
73360;DHT22;63092;43.582;19.528;2022-12-18T02:18:47;5.80;97.90
73360;DHT22;63092;43.582;19.528;2022-12-18T02:25:04;5.90;98.20
73360;DHT22;63092;43.582;19.528;2022-12-18T02:27:09;5.90;98.40
73360;DHT22;63092;43.582;19.528;2022-12-18T02:32:14;5.90;97.90
73360;DHT22;63092;43.582;19.528;2022-12-18T02:34:41;5.90;98.60
73360;DHT22;63092;43.582;19.528;2022-12-18T02:37:12;5.80;97.80
73360;DHT22;63092;43.582;19.528;2022-12-18T02:39:41;5.80;97.50
73360;DHT22;63092;43.582;19.528;2022-12-18T02:42:08;5.70;96.70
73360;DHT22;63092;43.582;19.528;2022-12-18T02:44:41;5.80;96.60
73360;DHT22;63092;43.582;19.528;2022-12-18T02:47:10;5.80;97.20
73360;DHT22;63092;43.582;19.528;2022-12-18T02:57:46;5.80;97.70
73360;DHT22;63092;43.582;19.528;2022-12-18T03:00:24;5.80;98.60
73360;DHT22;63092;43.582;19.528;2022-12-18T03:05:47;5.70;98.40
73360;DHT22;63092;43.582;19.528;2022-12-18T03:08:28;5.50;99.50
73360;DHT22;63092;43.582;19.528;2022-12-18T03:10:58;5.40;98.80
73360;DHT22;63092;43.582;19.528;2022-12-18T03:13:39;5.40;98.20
73360;DHT22;63092;43.582;19.528;2022-12-18T03:16:08;5.40;99.10
73360;DHT22;63092;43.582;19.528;2022-12-18T03:18:45;5.40;98.90
73360;DHT22;63092;43.582;19.528;2022-12-18T03:21:13;5.30;98.80
73360;DHT22;63092;43.582;19.528;2022-12-18T03:23:45;5.40;98.90
73360;DHT22;63092;43.582;19.528;2022-12-18T03:26:16;5.40;98.30
73360;DHT22;63092;43.582;19.528;2022-12-18T03:28:55;5.40;98.90
73360;DHT22;63092;43.582;19.528;2022-12-18T03:31:23;5.50;99.90
73360;DHT22;63092;43.582;19.528;2022-12-18T03:33:59;5.50;99.50
73360;DHT22;63092;43.582;19.528;2022-12-18T03:36:26;5.50;99.90
73360;DHT22;63092;43.582;19.528;2022-12-18T03:38:53;5.60;99.90
73360;DHT22;63092;43.582;19.528;2022-12-18T03:49:24;5.60;99.90
73360;DHT22;63092;43.582;19.528;2022-12-18T03:54:27;5.60;99.90
73360;DHT22;63092;43.582;19.528;2022-12-18T03:57:06;5.50;99.90
73360;DHT22;63092;43.582;19.528;2022-12-18T03:59:34;5.50;99.90
73360;DHT22;63092;43.582;19.528;2022-12-18T04:02:01;5.50;99.90
73360;DHT22;63092;43.582;19.528;2022-12-18T04:04:30;5.40;99.90
73360;DHT22;63092;43.582;19.528;2022-12-18T04:06:57;5.50;99.90
73360;DHT22;63092;43.582;19.528;2022-12-18T04:09:24;5.50;99.90
73360;DHT22;63092;43.582;19.528;2022-12-18T04:11:51;5.50;99.90
73360;DHT22;63092;43.582;19.528;2022-12-18T04:14:17;5.60;99.90
73360;DHT22;63092;43.582;19.528;2022-12-18T04:16:43;5.60;99.90
73360;DHT22;63092;43.582;19.528;2022-12-18T04:19:09;5.70;99.90
73360;DHT22;63092;43.582;19.528;2022-12-18T04:21:34;5.70;99.90
73360;DHT22;63092;43.582;19.528;2022-12-18T04:24:00;5.70;99.90
73360;DHT22;63092;43.582;19.528;2022-12-18T04:26:26;5.70;99.90
73360;DHT22;63092;43.582;19.528;2022-12-18T04:28:52;5.60;99.90
73360;DHT22;63092;43.582;19.528;2022-12-18T04:31:17;5.60;99.90
73360;DHT22;63092;43.582;19.528;2022-12-18T04:33:43;5.70;99.90
73360;DHT22;63092;43.582;19.528;2022-12-18T04:36:09;5.60;99.90
73360;DHT22;63092;43.582;19.528;2022-12-18T04:38:35;5.60;99.90
73360;DHT22;63092;43.582;19.528;2022-12-18T04:41:00;5.50;99.90
73360;DHT22;63092;43.582;19.528;2022-12-18T04:43:26;5.40;99.90
73360;DHT22;63092;43.582;19.528;2022-12-18T04:45:52;5.30;99.90
73360;DHT22;63092;43.582;19.528;2022-12-18T04:48:17;5.30;99.90
73360;DHT22;63092;43.582;19.528;2022-12-18T04:50:43;5.30;99.90
73360;DHT22;63092;43.582;19.528;2022-12-18T04:53:09;5.30;99.90
73360;DHT22;63092;43.582;19.528;2022-12-18T04:55:35;5.30;99.90
73360;DHT22;63092;43.582;19.528;2022-12-18T04:58:00;5.30;99.90
73360;DHT22;63092;43.582;19.528;2022-12-18T05:00:26;5.40;99.90
73360;DHT22;63092;43.582;19.528;2022-12-18T05:02:52;5.40;99.90
73360;DHT22;63092;43.582;19.528;2022-12-18T05:05:18;5.40;99.90
73360;DHT22;63092;43.582;19.528;2022-12-18T05:07:43;5.40;99.90
73360;DHT22;63092;43.582;19.528;2022-12-18T05:10:09;5.50;99.90
73360;DHT22;63092;43.582;19.528;2022-12-18T05:12:35;5.50;99.90
73360;DHT22;63092;43.582;19.528;2022-12-18T05:15:21;5.60;99.90
73360;DHT22;63092;43.582;19.528;2022-12-18T05:17:46;5.60;99.90
73360;DHT22;63092;43.582;19.528;2022-12-18T05:20:12;5.50;99.90
73360;DHT22;63092;43.582;19.528;2022-12-18T05:22:38;5.40;99.90
73360;DHT22;63092;43.582;19.528;2022-12-18T05:25:04;5.40;99.90
73360;DHT22;63092;43.582;19.528;2022-12-18T05:27:30;5.40;99.90
73360;DHT22;63092;43.582;19.528;2022-12-18T05:29:55;5.50;99.90
73360;DHT22;63092;43.582;19.528;2022-12-18T05:32:21;5.50;99.90
73360;DHT22;63092;43.582;19.528;2022-12-18T05:34:47;5.50;99.90
73360;DHT22;63092;43.582;19.528;2022-12-18T05:37:12;5.40;99.50
73360;DHT22;63092;43.582;19.528;2022-12-18T05:39:38;5.30;99.60
73360;DHT22;63092;43.582;19.528;2022-12-18T05:42:04;5.30;99.10
73360;DHT22;63092;43.582;19.528;2022-12-18T05:44:29;5.30;99.90
73360;DHT22;63092;43.582;19.528;2022-12-18T05:46:55;5.30;99.90
73360;DHT22;63092;43.582;19.528;2022-12-18T05:49:21;5.20;99.20
73360;DHT22;63092;43.582;19.528;2022-12-18T05:51:46;5.30;99.90
73360;DHT22;63092;43.582;19.528;2022-12-18T05:54:12;5.30;99.60
73360;DHT22;63092;43.582;19.528;2022-12-18T05:56:38;5.40;99.90
73360;DHT22;63092;43.582;19.528;2022-12-18T05:59:04;5.40;99.10
73360;DHT22;63092;43.582;19.528;2022-12-18T06:01:29;5.40;99.30
73360;DHT22;63092;43.582;19.528;2022-12-18T06:03:55;5.40;98.90
73360;DHT22;63092;43.582;19.528;2022-12-18T06:06:25;5.40;98.60
73360;DHT22;63092;43.582;19.528;2022-12-18T06:08:52;5.50;99.00
73360;DHT22;63092;43.582;19.528;2022-12-18T06:11:24;5.50;99.00
73360;DHT22;63092;43.582;19.528;2022-12-18T06:13:51;5.50;98.70
73360;DHT22;63092;43.582;19.528;2022-12-18T06:16:17;5.50;99.20
73360;DHT22;63092;43.582;19.528;2022-12-18T06:18:43;5.50;99.20
73360;DHT22;63092;43.582;19.528;2022-12-18T06:21:09;5.50;99.20
73360;DHT22;63092;43.582;19.528;2022-12-18T06:23:35;5.40;99.50
73360;DHT22;63092;43.582;19.528;2022-12-18T06:26:08;5.40;99.60
73360;DHT22;63092;43.582;19.528;2022-12-18T06:28:35;5.50;99.30
73360;DHT22;63092;43.582;19.528;2022-12-18T06:31:02;5.50;99.10
73360;DHT22;63092;43.582;19.528;2022-12-18T06:33:29;5.50;99.20
73360;DHT22;63092;43.582;19.528;2022-12-18T06:36:09;5.50;99.10
73360;DHT22;63092;43.582;19.528;2022-12-18T06:38:37;5.60;99.70
73360;DHT22;63092;43.582;19.528;2022-12-18T06:41:20;5.60;97.50
73360;DHT22;63092;43.582;19.528;2022-12-18T06:43:46;5.60;98.80
73360;DHT22;63092;43.582;19.528;2022-12-18T06:46:12;5.60;98.90
73360;DHT22;63092;43.582;19.528;2022-12-18T06:48:39;5.60;99.30
73360;DHT22;63092;43.582;19.528;2022-12-18T06:51:05;5.60;99.50
73360;DHT22;63092;43.582;19.528;2022-12-18T06:53:31;5.60;99.90
73360;DHT22;63092;43.582;19.528;2022-12-18T06:56:05;5.60;99.90
73360;DHT22;63092;43.582;19.528;2022-12-18T06:58:32;5.60;98.90
73360;DHT22;63092;43.582;19.528;2022-12-18T07:01:05;5.50;99.50
73360;DHT22;63092;43.582;19.528;2022-12-18T07:03:31;5.60;98.60
73360;DHT22;63092;43.582;19.528;2022-12-18T07:05:57;5.60;99.20
73360;DHT22;63092;43.582;19.528;2022-12-18T07:08:23;5.70;98.30
73360;DHT22;63092;43.582;19.528;2022-12-18T07:10:48;5.70;98.20
73360;DHT22;63092;43.582;19.528;2022-12-18T07:13:16;5.80;98.50
73360;DHT22;63092;43.582;19.528;2022-12-18T07:15:42;5.80;98.30
73360;DHT22;63092;43.582;19.528;2022-12-18T07:18:08;5.80;98.50
73360;DHT22;63092;43.582;19.528;2022-12-18T07:20:34;5.90;97.60
73360;DHT22;63092;43.582;19.528;2022-12-18T07:23:02;5.80;98.20
73360;DHT22;63092;43.582;19.528;2022-12-18T07:25:28;5.80;98.10
73360;DHT22;63092;43.582;19.528;2022-12-18T07:27:54;5.80;97.80
73360;DHT22;63092;43.582;19.528;2022-12-18T07:30:20;5.80;97.50
73360;DHT22;63092;43.582;19.528;2022-12-18T07:32:46;5.80;95.80
73360;DHT22;63092;43.582;19.528;2022-12-18T07:35:11;5.90;95.00
73360;DHT22;63092;43.582;19.528;2022-12-18T07:37:37;5.90;94.40
73360;DHT22;63092;43.582;19.528;2022-12-18T07:40:03;5.90;94.80
73360;DHT22;63092;43.582;19.528;2022-12-18T07:42:29;5.90;94.50
73360;DHT22;63092;43.582;19.528;2022-12-18T07:45:01;5.90;94.70
73360;DHT22;63092;43.582;19.528;2022-12-18T07:47:30;6.00;94.40
73360;DHT22;63092;43.582;19.528;2022-12-18T07:49:55;6.00;94.30
73360;DHT22;63092;43.582;19.528;2022-12-18T07:52:21;6.00;93.60
73360;DHT22;63092;43.582;19.528;2022-12-18T07:54:47;6.00;93.70
73360;DHT22;63092;43.582;19.528;2022-12-18T07:57:15;5.90;93.10
73360;DHT22;63092;43.582;19.528;2022-12-18T07:59:42;5.90;94.60
73360;DHT22;63092;43.582;19.528;2022-12-18T08:02:08;5.80;94.50
73360;DHT22;63092;43.582;19.528;2022-12-18T08:04:34;5.90;93.90
73360;DHT22;63092;43.582;19.528;2022-12-18T08:06:59;5.90;94.30
73360;DHT22;63092;43.582;19.528;2022-12-18T08:09:25;5.90;94.10
73360;DHT22;63092;43.582;19.528;2022-12-18T08:11:51;5.90;94.20
73360;DHT22;63092;43.582;19.528;2022-12-18T08:14:17;5.90;93.10
73360;DHT22;63092;43.582;19.528;2022-12-18T08:16:42;5.90;93.80
73360;DHT22;63092;43.582;19.528;2022-12-18T08:19:08;6.00;93.70
73360;DHT22;63092;43.582;19.528;2022-12-18T08:21:34;6.00;94.30
73360;DHT22;63092;43.582;19.528;2022-12-18T08:24:01;5.90;93.70
73360;DHT22;63092;43.582;19.528;2022-12-18T08:26:29;5.90;92.90
73360;DHT22;63092;43.582;19.528;2022-12-18T08:28:57;6.00;93.20
73360;DHT22;63092;43.582;19.528;2022-12-18T08:31:23;6.10;93.70
73360;DHT22;63092;43.582;19.528;2022-12-18T08:33:50;6.10;92.80
73360;DHT22;63092;43.582;19.528;2022-12-18T08:36:16;6.10;92.50
73360;DHT22;63092;43.582;19.528;2022-12-18T08:38:43;6.10;93.50
73360;DHT22;63092;43.582;19.528;2022-12-18T08:41:13;6.10;93.30
73360;DHT22;63092;43.582;19.528;2022-12-18T08:43:39;6.10;93.70
73360;DHT22;63092;43.582;19.528;2022-12-18T08:46:25;6.20;93.50
73360;DHT22;63092;43.582;19.528;2022-12-18T08:48:52;6.20;92.90
73360;DHT22;63092;43.582;19.528;2022-12-18T08:51:18;6.30;93.20
73360;DHT22;63092;43.582;19.528;2022-12-18T08:53:45;6.30;92.50
73360;DHT22;63092;43.582;19.528;2022-12-18T08:56:11;6.30;92.50
73360;DHT22;63092;43.582;19.528;2022-12-18T08:58:37;6.40;92.10
73360;DHT22;63092;43.582;19.528;2022-12-18T09:01:05;6.30;91.70
73360;DHT22;63092;43.582;19.528;2022-12-18T09:03:31;6.30;92.40
73360;DHT22;63092;43.582;19.528;2022-12-18T09:05:57;6.30;91.30
73360;DHT22;63092;43.582;19.528;2022-12-18T09:08:22;6.30;90.90
73360;DHT22;63092;43.582;19.528;2022-12-18T09:10:49;6.40;90.80
73360;DHT22;63092;43.582;19.528;2022-12-18T09:13:16;6.50;90.30
73360;DHT22;63092;43.582;19.528;2022-12-18T09:15:43;6.40;88.40
73360;DHT22;63092;43.582;19.528;2022-12-18T09:18:11;6.40;89.50
73360;DHT22;63092;43.582;19.528;2022-12-18T09:20:38;6.50;90.00
73360;DHT22;63092;43.582;19.528;2022-12-18T09:23:05;6.40;88.00
73360;DHT22;63092;43.582;19.528;2022-12-18T09:25:31;6.40;88.20
73360;DHT22;63092;43.582;19.528;2022-12-18T09:28:02;6.40;88.50
73360;DHT22;63092;43.582;19.528;2022-12-18T09:30:28;6.30;90.60
73360;DHT22;63092;43.582;19.528;2022-12-18T09:32:54;6.40;90.40
73360;DHT22;63092;43.582;19.528;2022-12-18T09:35:20;6.50;90.70
73360;DHT22;63092;43.582;19.528;2022-12-18T09:37:46;6.50;86.50
73360;DHT22;63092;43.582;19.528;2022-12-18T09:40:19;6.30;87.80
73360;DHT22;63092;43.582;19.528;2022-12-18T09:42:54;6.40;88.70
73360;DHT22;63092;43.582;19.528;2022-12-18T09:45:21;6.60;88.00
73360;DHT22;63092;43.582;19.528;2022-12-18T09:47:49;6.70;88.10
73360;DHT22;63092;43.582;19.528;2022-12-18T09:50:32;6.70;87.50
73360;DHT22;63092;43.582;19.528;2022-12-18T09:53:05;6.60;86.00
73360;DHT22;63092;43.582;19.528;2022-12-18T09:55:36;6.60;86.90
73360;DHT22;63092;43.582;19.528;2022-12-18T09:58:13;6.60;86.50
73360;DHT22;63092;43.582;19.528;2022-12-18T10:00:40;6.50;86.30
73360;DHT22;63092;43.582;19.528;2022-12-18T10:03:10;6.40;87.80
73360;DHT22;63092;43.582;19.528;2022-12-18T10:11:34;6.40;87.80
73360;DHT22;63092;43.582;19.528;2022-12-18T10:20:05;6.40;87.50
73360;DHT22;63092;43.582;19.528;2022-12-18T10:22:57;6.60;89.20
73360;DHT22;63092;43.582;19.528;2022-12-18T10:25:38;6.50;85.70
73360;DHT22;63092;43.582;19.528;2022-12-18T10:28:14;6.50;87.80
73360;DHT22;63092;43.582;19.528;2022-12-18T10:30:42;6.60;86.30
73360;DHT22;63092;43.582;19.528;2022-12-18T10:33:22;6.50;86.20
73360;DHT22;63092;43.582;19.528;2022-12-18T10:35:52;6.50;83.60
73360;DHT22;63092;43.582;19.528;2022-12-18T10:40:59;6.70;86.40
73360;DHT22;63092;43.582;19.528;2022-12-18T10:43:31;6.70;85.20
73360;DHT22;63092;43.582;19.528;2022-12-18T10:46:11;6.80;85.40
73360;DHT22;63092;43.582;19.528;2022-12-18T10:48:51;6.80;82.90
73360;DHT22;63092;43.582;19.528;2022-12-18T10:51:31;6.90;85.60
73360;DHT22;63092;43.582;19.528;2022-12-18T10:54:04;6.90;84.60
73360;DHT22;63092;43.582;19.528;2022-12-18T10:56:34;6.90;81.70
73360;DHT22;63092;43.582;19.528;2022-12-18T10:59:05;6.80;86.40
73360;DHT22;63092;43.582;19.528;2022-12-18T11:01:52;6.70;84.10
73360;DHT22;63092;43.582;19.528;2022-12-18T11:04:29;6.70;86.80
73360;DHT22;63092;43.582;19.528;2022-12-18T11:07:06;6.80;86.40
73360;DHT22;63092;43.582;19.528;2022-12-18T11:09:36;6.70;83.90
73360;DHT22;63092;43.582;19.528;2022-12-18T11:12:22;6.80;84.10
73360;DHT22;63092;43.582;19.528;2022-12-18T11:14:52;6.90;83.90
73360;DHT22;63092;43.582;19.528;2022-12-18T11:19:44;6.70;83.60
73360;DHT22;63092;43.582;19.528;2022-12-18T11:25:05;6.80;81.90
73360;DHT22;63092;43.582;19.528;2022-12-18T11:27:31;6.90;82.80
73360;DHT22;63092;43.582;19.528;2022-12-18T11:30:22;7.00;82.50
73360;DHT22;63092;43.582;19.528;2022-12-18T11:35:30;6.80;83.90
73360;DHT22;63092;43.582;19.528;2022-12-18T11:38:02;7.00;83.40
73360;DHT22;63092;43.582;19.528;2022-12-18T11:40:35;7.10;81.50
73360;DHT22;63092;43.582;19.528;2022-12-18T11:43:19;7.20;84.70
73360;DHT22;63092;43.582;19.528;2022-12-18T11:45:53;7.20;82.00
73360;DHT22;63092;43.582;19.528;2022-12-18T11:48:27;7.30;81.00
73360;DHT22;63092;43.582;19.528;2022-12-18T11:50:56;7.50;86.40
73360;DHT22;63092;43.582;19.528;2022-12-18T11:53:24;7.50;88.70
73360;DHT22;63092;43.582;19.528;2022-12-18T11:58:38;7.30;81.50
73360;DHT22;63092;43.582;19.528;2022-12-18T12:01:15;7.30;82.10
73360;DHT22;63092;43.582;19.528;2022-12-18T12:06:40;7.30;81.80
73360;DHT22;63092;43.582;19.528;2022-12-18T12:19:53;7.60;82.10
73360;DHT22;63092;43.582;19.528;2022-12-18T12:30:30;7.70;78.60
73360;DHT22;63092;43.582;19.528;2022-12-18T12:36:21;7.80;77.20
73360;DHT22;63092;43.582;19.528;2022-12-18T12:38:54;7.70;76.40
73360;DHT22;63092;43.582;19.528;2022-12-18T12:41:24;7.70;77.60
73360;DHT22;63092;43.582;19.528;2022-12-18T12:44:22;7.70;79.20
73360;DHT22;63092;43.582;19.528;2022-12-18T12:46:50;7.60;76.50
73360;DHT22;63092;43.582;19.528;2022-12-18T12:49:19;7.70;80.00
73360;DHT22;63092;43.582;19.528;2022-12-18T12:52:00;7.80;79.50
73360;DHT22;63092;43.582;19.528;2022-12-18T12:54:27;7.70;77.30
73360;DHT22;63092;43.582;19.528;2022-12-18T13:04:56;7.60;76.90
73360;DHT22;63092;43.582;19.528;2022-12-18T13:07:35;7.70;76.60
73360;DHT22;63092;43.582;19.528;2022-12-18T13:15:37;7.60;77.30
73360;DHT22;63092;43.582;19.528;2022-12-18T13:34:21;7.60;80.00
73360;DHT22;63092;43.582;19.528;2022-12-18T13:36:49;7.60;78.30
73360;DHT22;63092;43.582;19.528;2022-12-18T13:41:45;7.60;77.70
73360;DHT22;63092;43.582;19.528;2022-12-18T13:46:55;7.60;78.40
73360;DHT22;63092;43.582;19.528;2022-12-18T13:51:51;7.60;76.40
73360;DHT22;63092;43.582;19.528;2022-12-18T13:57:05;7.40;77.30
73360;DHT22;63092;43.582;19.528;2022-12-18T13:59:39;7.40;77.40
73360;DHT22;63092;43.582;19.528;2022-12-18T14:02:16;7.40;80.00
73360;DHT22;63092;43.582;19.528;2022-12-18T14:04:45;7.50;80.30
73360;DHT22;63092;43.582;19.528;2022-12-18T14:07:14;7.60;79.00
73360;DHT22;63092;43.582;19.528;2022-12-18T14:09:46;7.60;76.20
73360;DHT22;63092;43.582;19.528;2022-12-18T14:12:33;7.50;76.80
73360;DHT22;63092;43.582;19.528;2022-12-18T14:17:58;7.60;79.80
73360;DHT22;63092;43.582;19.528;2022-12-18T14:20:26;7.50;77.80
73360;DHT22;63092;43.582;19.528;2022-12-18T14:22:52;7.60;78.30
73360;DHT22;63092;43.582;19.528;2022-12-18T14:25:22;7.50;79.00
73360;DHT22;63092;43.582;19.528;2022-12-18T14:27:52;7.50;79.10
73360;DHT22;63092;43.582;19.528;2022-12-18T14:30:25;7.40;78.50
73360;DHT22;63092;43.582;19.528;2022-12-18T14:35:42;7.30;78.60
73360;DHT22;63092;43.582;19.528;2022-12-18T14:38:39;7.20;75.70
73360;DHT22;63092;43.582;19.528;2022-12-18T14:41:10;7.10;76.40
73360;DHT22;63092;43.582;19.528;2022-12-18T14:43:38;7.10;78.40
73360;DHT22;63092;43.582;19.528;2022-12-18T14:46:06;7.10;78.20
73360;DHT22;63092;43.582;19.528;2022-12-18T14:48:51;7.20;77.90
73360;DHT22;63092;43.582;19.528;2022-12-18T14:51:24;7.00;76.40
73360;DHT22;63092;43.582;19.528;2022-12-18T14:54:02;7.00;76.00
73360;DHT22;63092;43.582;19.528;2022-12-18T14:56:29;7.00;77.30
73360;DHT22;63092;43.582;19.528;2022-12-18T14:59:00;7.00;78.70
73360;DHT22;63092;43.582;19.528;2022-12-18T15:01:32;7.10;79.40
73360;DHT22;63092;43.582;19.528;2022-12-18T15:04:00;7.00;79.90
73360;DHT22;63092;43.582;19.528;2022-12-18T15:06:37;7.10;80.60
73360;DHT22;63092;43.582;19.528;2022-12-18T15:09:20;7.10;79.30
73360;DHT22;63092;43.582;19.528;2022-12-18T15:11:47;7.10;81.40
73360;DHT22;63092;43.582;19.528;2022-12-18T15:16:59;7.00;77.60
73360;DHT22;63092;43.582;19.528;2022-12-18T15:19:44;7.00;80.00
73360;DHT22;63092;43.582;19.528;2022-12-18T15:22:32;7.10;80.10
73360;DHT22;63092;43.582;19.528;2022-12-18T15:24:59;7.00;78.60
73360;DHT22;63092;43.582;19.528;2022-12-18T15:27:31;7.00;79.40
73360;DHT22;63092;43.582;19.528;2022-12-18T15:32:34;6.90;80.20
73360;DHT22;63092;43.582;19.528;2022-12-18T15:37:35;6.80;79.40
73360;DHT22;63092;43.582;19.528;2022-12-18T15:40:01;6.80;80.50
73360;DHT22;63092;43.582;19.528;2022-12-18T15:42:28;6.80;80.80
73360;DHT22;63092;43.582;19.528;2022-12-18T15:45:13;6.80;81.40
73360;DHT22;63092;43.582;19.528;2022-12-18T15:47:39;6.70;80.30
73360;DHT22;63092;43.582;19.528;2022-12-18T15:50:07;6.70;80.00
73360;DHT22;63092;43.582;19.528;2022-12-18T15:52:40;6.70;80.60
73360;DHT22;63092;43.582;19.528;2022-12-18T15:55:21;6.60;80.10
73360;DHT22;63092;43.582;19.528;2022-12-18T15:58:06;6.50;80.70
73360;DHT22;63092;43.582;19.528;2022-12-18T16:00:34;6.50;82.10
73360;DHT22;63092;43.582;19.528;2022-12-18T16:03:00;6.60;82.40
73360;DHT22;63092;43.582;19.528;2022-12-18T16:05:27;6.60;82.60
73360;DHT22;63092;43.582;19.528;2022-12-18T16:07:53;6.60;81.90
73360;DHT22;63092;43.582;19.528;2022-12-18T16:10:19;6.60;81.10
73360;DHT22;63092;43.582;19.528;2022-12-18T16:12:45;6.60;82.10
73360;DHT22;63092;43.582;19.528;2022-12-18T16:15:13;6.60;82.60
73360;DHT22;63092;43.582;19.528;2022-12-18T16:17:42;6.60;81.70
73360;DHT22;63092;43.582;19.528;2022-12-18T16:20:16;6.60;81.40
73360;DHT22;63092;43.582;19.528;2022-12-18T16:22:43;6.70;81.60
73360;DHT22;63092;43.582;19.528;2022-12-18T16:25:24;6.70;81.80
73360;DHT22;63092;43.582;19.528;2022-12-18T16:27:51;6.80;81.90
73360;DHT22;63092;43.582;19.528;2022-12-18T16:30:20;6.70;82.10
73360;DHT22;63092;43.582;19.528;2022-12-18T16:32:47;6.70;79.70
73360;DHT22;63092;43.582;19.528;2022-12-18T16:35:14;6.70;82.40
73360;DHT22;63092;43.582;19.528;2022-12-18T16:37:40;6.70;83.50
73360;DHT22;63092;43.582;19.528;2022-12-18T16:40:08;6.80;82.30
73360;DHT22;63092;43.582;19.528;2022-12-18T16:42:35;6.70;81.90
73360;DHT22;63092;43.582;19.528;2022-12-18T16:45:03;6.70;82.80
73360;DHT22;63092;43.582;19.528;2022-12-18T16:47:29;6.60;84.70
73360;DHT22;63092;43.582;19.528;2022-12-18T16:49:54;6.70;86.80
73360;DHT22;63092;43.582;19.528;2022-12-18T16:52:20;6.60;87.80
73360;DHT22;63092;43.582;19.528;2022-12-18T16:54:46;6.60;89.20
73360;DHT22;63092;43.582;19.528;2022-12-18T16:57:15;6.70;88.60
73360;DHT22;63092;43.582;19.528;2022-12-18T16:59:41;6.60;87.70
73360;DHT22;63092;43.582;19.528;2022-12-18T17:02:15;6.60;87.20
73360;DHT22;63092;43.582;19.528;2022-12-18T17:04:42;6.60;88.20
73360;DHT22;63092;43.582;19.528;2022-12-18T17:07:08;6.60;87.20
73360;DHT22;63092;43.582;19.528;2022-12-18T17:09:34;6.50;85.50
73360;DHT22;63092;43.582;19.528;2022-12-18T17:12:00;6.50;87.70
73360;DHT22;63092;43.582;19.528;2022-12-18T17:14:26;6.50;87.20
73360;DHT22;63092;43.582;19.528;2022-12-18T17:16:53;6.60;87.30
73360;DHT22;63092;43.582;19.528;2022-12-18T17:19:19;6.60;86.90
73360;DHT22;63092;43.582;19.528;2022-12-18T17:21:47;6.60;86.40
73360;DHT22;63092;43.582;19.528;2022-12-18T17:24:14;6.60;85.80
73360;DHT22;63092;43.582;19.528;2022-12-18T17:26:40;6.50;84.60
73360;DHT22;63092;43.582;19.528;2022-12-18T17:29:06;6.50;86.40
73360;DHT22;63092;43.582;19.528;2022-12-18T17:31:31;6.50;85.20
73360;DHT22;63092;43.582;19.528;2022-12-18T17:33:58;6.40;84.50
73360;DHT22;63092;43.582;19.528;2022-12-18T17:36:25;6.40;85.90
73360;DHT22;63092;43.582;19.528;2022-12-18T17:38:59;6.20;84.60
73360;DHT22;63092;43.582;19.528;2022-12-18T17:41:26;6.20;85.40
73360;DHT22;63092;43.582;19.528;2022-12-18T17:44:00;6.20;86.30
73360;DHT22;63092;43.582;19.528;2022-12-18T17:46:28;6.10;87.50
73360;DHT22;63092;43.582;19.528;2022-12-18T17:48:55;6.10;86.50
73360;DHT22;63092;43.582;19.528;2022-12-18T17:51:22;6.10;87.80
73360;DHT22;63092;43.582;19.528;2022-12-18T17:53:48;6.10;86.00
73360;DHT22;63092;43.582;19.528;2022-12-18T17:56:16;6.20;87.70
73360;DHT22;63092;43.582;19.528;2022-12-18T17:58:42;6.20;86.50
73360;DHT22;63092;43.582;19.528;2022-12-18T18:01:13;6.30;87.80
73360;DHT22;63092;43.582;19.528;2022-12-18T18:03:40;6.30;87.70
73360;DHT22;63092;43.582;19.528;2022-12-18T18:06:06;6.30;87.40
73360;DHT22;63092;43.582;19.528;2022-12-18T18:08:33;6.30;87.80
73360;DHT22;63092;43.582;19.528;2022-12-18T18:11:03;6.30;89.50